Time;durP1;ratioP1;P1;durP2;ratioP2;P2;SDS_P1;SDS_P2;PMS_P1;PMS_P2;Temp;Humidity;BMP_temperature;BMP_pressure;BME280_temperature;BME280_humidity;BME280_pressure;Samples;Min_cycle;Max_cycle;Signal;HPM_P1;HPM_P2
2023/03/04 00:02:05;;;;;;;21.97;10.60;;;;;;;1.77;76.26;99783.61;1700355;84;21438;-67
2023/03/04 00:04:36;;;;;;;25.15;11.50;;;;;;;1.73;76.27;99781.38;1700316;84;21070;-68
2023/03/04 00:07:05;;;;;;;22.67;10.63;;;;;;;1.71;76.34;99768.53;1700160;83;21170;-68
2023/03/04 00:09:35;;;;;;;25.80;10.93;;;;;;;1.70;76.43;99781.19;1700292;84;21081;-67
2023/03/04 00:12:07;;;;;;;23.75;11.15;;;;;;;1.69;76.37;99779.99;1699931;83;21053;-68
2023/03/04 00:14:36;;;;;;;23.47;11.45;;;;;;;1.67;76.45;99772.05;1699692;84;21034;-68
2023/03/04 00:17:07;;;;;;;25.70;11.43;;;;;;;1.65;76.40;99767.81;1700272;83;21492;-67
2023/03/04 00:19:38;;;;;;;27.30;12.23;;;;;;;1.62;76.54;99772.17;1700106;84;21561;-67
2023/03/04 00:22:07;;;;;;;25.30;11.90;;;;;;;1.57;76.54;99760.48;1700345;84;21129;-68
2023/03/04 00:24:38;;;;;;;25.32;11.73;;;;;;;1.55;76.65;99759.80;1700243;84;21437;-67
2023/03/04 00:27:06;;;;;;;24.87;12.20;;;;;;;1.53;76.77;99758.61;1700678;83;21166;-68
2023/03/04 00:29:35;;;;;;;25.48;11.63;;;;;;;1.52;76.86;99751.52;1705623;83;21046;-67
2023/03/04 00:32:05;;;;;;;27.95;12.28;;;;;;;1.49;76.90;99759.07;1705613;83;21128;-68
2023/03/04 00:34:35;;;;;;;25.40;11.80;;;;;;;1.44;77.05;99762.23;1705580;83;21089;-68
2023/03/04 00:37:05;;;;;;;26.65;12.35;;;;;;;1.40;77.25;99763.55;1705294;84;21113;-66
2023/03/04 00:39:34;;;;;;;25.32;12.30;;;;;;;1.40;77.42;99751.91;1705395;84;21038;-68
2023/03/04 00:42:03;;;;;;;28.85;11.83;;;;;;;1.40;77.45;99750.05;1705461;84;21101;-68
2023/03/04 00:44:32;;;;;;;25.27;11.93;;;;;;;1.41;77.50;99745.50;1705311;83;21520;-69
2023/03/04 00:47:01;;;;;;;24.65;11.57;;;;;;;1.37;77.61;99750.87;1705065;83;21505;-68
2023/03/04 00:49:31;;;;;;;24.57;11.53;;;;;;;1.31;77.73;99745.59;1705197;84;21042;-69
2023/03/04 00:52:00;;;;;;;27.10;12.00;;;;;;;1.29;77.92;99743.52;1705388;84;21077;-69
2023/03/04 00:54:31;;;;;;;28.15;12.82;;;;;;;1.27;77.99;99746.36;1705289;83;21455;-66
2023/03/04 00:57:00;;;;;;;23.60;12.13;;;;;;;1.25;78.06;99743.47;1705604;83;21053;-68
2023/03/04 00:59:29;;;;;;;21.97;11.50;;;;;;;1.24;78.17;99729.14;1705441;84;21041;-67
2023/03/04 01:01:58;;;;;;;21.42;10.28;;;;;;;1.23;78.25;99722.55;1705366;83;21014;-69
2023/03/04 01:04:27;;;;;;;22.27;9.65;;;;;;;1.25;78.23;99722.73;1705132;84;21065;-67
2023/03/04 01:06:57;;;;;;;23.77;11.03;;;;;;;1.23;78.19;99724.74;1705370;84;21462;-67
2023/03/04 01:09:27;;;;;;;22.98;11.05;;;;;;;1.22;78.24;99727.59;1705222;83;21054;-67
2023/03/04 01:11:56;;;;;;;21.23;10.53;;;;;;;1.22;78.32;99718.15;1705193;83;21085;-67
2023/03/04 01:14:25;;;;;;;25.35;10.98;;;;;;;1.23;78.27;99713.95;1705335;83;21049;-66
2023/03/04 01:16:54;;;;;;;21.23;10.78;;;;;;;1.24;78.22;99714.80;1705096;84;21085;-67
2023/03/04 01:19:25;;;;;;;21.75;10.72;;;;;;;1.22;78.21;99712.25;1705046;83;21492;-66
2023/03/04 01:21:54;;;;;;;23.52;10.75;;;;;;;1.23;78.28;99709.05;1705229;83;21002;-70
2023/03/04 01:24:25;;;;;;;24.02;10.55;;;;;;;1.24;78.29;99702.66;1705166;83;21437;-67
2023/03/04 01:26:53;;;;;;;21.73;10.60;;;;;;;1.23;78.20;99697.76;1705171;83;21058;-68
2023/03/04 01:29:25;;;;;;;21.68;10.18;;;;;;;1.24;78.28;99702.66;1696252;84;21054;-67
2023/03/04 01:31:57;;;;;;;23.55;10.93;;;;;;;1.25;78.19;99694.41;1695108;85;21512;-67
2023/03/04 01:34:26;;;;;;;22.45;10.48;;;;;;;1.25;78.10;99702.50;1695178;85;21091;-68
2023/03/04 01:36:54;;;;;;;24.57;10.88;;;;;;;1.22;77.90;99695.22;1695078;85;21098;-67
2023/03/04 01:39:23;;;;;;;26.45;10.55;;;;;;;1.16;77.79;99696.69;1694675;85;21078;-67
2023/03/04 01:41:54;;;;;;;22.42;11.00;;;;;;;1.11;77.84;99702.20;1694979;85;21010;-69
2023/03/04 01:44:24;;;;;;;25.62;10.68;;;;;;;1.08;78.04;99701.16;1695392;85;21513;-67
2023/03/04 01:46:54;;;;;;;29.30;11.93;;;;;;;1.06;78.19;99700.47;1694935;85;21454;-67
2023/03/04 01:49:25;;;;;;;22.85;11.60;;;;;;;1.05;78.28;99694.22;1695251;84;21117;-69
2023/03/04 01:51:54;;;;;;;32.30;12.28;;;;;;;1.05;78.43;99698.77;1695279;84;21066;-68
2023/03/04 01:54:23;;;;;;;31.17;12.03;;;;;;;1.04;78.43;99691.68;1694787;84;21312;-69
2023/03/04 01:56:53;;;;;;;27.70;11.93;;;;;;;1.02;78.56;99685.09;1694995;84;21109;-68
2023/03/04 01:59:25;;;;;;;32.48;12.65;;;;;;;1.01;78.62;99683.39;1695064;84;21050;-69
2023/03/04 02:01:56;;;;;;;30.77;12.18;;;;;;;1.02;78.66;99680.20;1695387;84;21414;-67
2023/03/04 02:04:29;;;;;;;30.45;12.85;;;;;;;0.99;78.78;99676.45;1695111;84;21082;-68
2023/03/04 02:06:58;;;;;;;28.73;13.50;;;;;;;0.96;78.77;99672.22;1695008;84;21081;-67
2023/03/04 02:09:28;;;;;;;31.62;13.80;;;;;;;0.90;78.97;99670.98;1695200;84;21520;-67
2023/03/04 02:11:57;;;;;;;33.98;13.78;;;;;;;0.87;79.09;99671.80;1694916;84;21492;-67
2023/03/04 02:14:26;;;;;;;29.05;12.82;;;;;;;0.82;79.34;99665.52;1694977;84;21141;-66
2023/03/04 02:16:56;;;;;;;31.42;14.73;;;;;;;0.80;79.67;99668.02;1694902;84;21462;-68
2023/03/04 02:19:51;;;;;;;30.88;13.55;;;;;;;0.79;79.95;99668.52;1695135;84;21458;-67
2023/03/04 02:22:21;;;;;;;37.58;15.03;;;;;;;0.78;80.16;99665.98;1695217;84;21046;-67
2023/03/04 02:25:02;;;;;;;29.60;14.45;;;;;;;0.78;80.35;99670.87;1695201;84;21023;-67
2023/03/04 02:27:31;;;;;;;35.88;15.90;;;;;;;0.74;80.52;99664.59;1695282;85;21080;-67
2023/03/04 02:29:59;;;;;;;29.02;14.30;;;;;;;0.70;80.85;99660.00;1704859;83;21509;-68
2023/03/04 02:32:30;;;;;;;35.05;14.87;;;;;;;0.70;81.24;99659.16;1705372;84;21033;-70
2023/03/04 02:35:00;;;;;;;34.73;14.93;;;;;;;0.71;81.45;99659.00;1704993;84;21034;-69
2023/03/04 02:37:30;;;;;;;31.40;14.68;;;;;;;0.69;81.66;99655.61;1705510;83;21034;-67
2023/03/04 02:39:58;;;;;;;33.13;14.85;;;;;;;0.66;81.85;99654.57;1705007;84;21075;-68
2023/03/04 02:42:27;;;;;;;36.83;15.43;;;;;;;0.66;82.09;99655.92;1705054;83;21041;-67
2023/03/04 02:45:00;;;;;;;37.08;15.70;;;;;;;0.65;82.30;99646.14;1705403;84;21057;-68
2023/03/04 02:47:29;;;;;;;34.70;15.55;;;;;;;0.67;82.44;99632.50;1704276;83;21074;-68
2023/03/04 02:49:58;;;;;;;32.33;15.00;;;;;;;0.68;82.53;99623.41;1705332;83;21034;-67
2023/03/04 02:52:29;;;;;;;31.40;14.87;;;;;;;0.67;82.62;99621.72;1705154;83;21485;-68
2023/03/04 02:54:58;;;;;;;37.50;16.12;;;;;;;0.67;82.75;99620.37;1705281;84;21104;-68
2023/03/04 02:57:27;;;;;;;35.95;15.38;;;;;;;0.67;82.75;99622.56;1705143;84;21082;-67
2023/03/04 02:59:56;;;;;;;36.75;15.65;;;;;;;0.67;82.79;99623.06;1705088;83;21065;-67
2023/03/04 03:02:27;;;;;;;36.35;15.68;;;;;;;0.66;82.79;99620.03;1705401;84;21469;-66
2023/03/04 03:04:56;;;;;;;37.30;16.87;;;;;;;0.67;82.78;99617.18;1705247;83;21010;-66
2023/03/04 03:07:26;;;;;;;34.23;15.80;;;;;;;0.66;82.79;99618.18;1705199;84;21093;-68
2023/03/04 03:09:56;;;;;;;35.40;15.05;;;;;;;0.66;82.82;99607.40;1704995;83;21458;-65
2023/03/04 03:12:25;;;;;;;33.83;15.50;;;;;;;0.65;82.85;99608.40;1705350;83;21073;-67
2023/03/04 03:14:54;;;;;;;37.58;16.73;;;;;;;0.64;82.89;99603.98;1705589;83;21092;-67
2023/03/04 03:17:24;;;;;;;35.08;16.02;;;;;;;0.63;82.97;99611.72;1722494;83;20998;-68
2023/03/04 03:19:54;;;;;;;39.25;15.98;;;;;;;0.62;83.07;99605.98;1722634;83;21074;-66
2023/03/04 03:22:24;;;;;;;35.17;15.35;;;;;;;0.61;83.13;99601.09;1722585;83;21022;-68
2023/03/04 03:24:54;;;;;;;38.30;16.67;;;;;;;0.59;83.22;99596.35;1727134;82;21030;-68
2023/03/04 03:27:23;;;;;;;35.15;15.70;;;;;;;0.56;83.33;99595.31;1722908;83;21156;-68
2023/03/04 03:29:52;;;;;;;42.10;16.37;;;;;;;0.57;83.48;99597.00;1727380;82;21086;-68
2023/03/04 03:32:21;;;;;;;35.70;15.68;;;;;;;0.59;83.50;99596.35;1722388;82;21090;-67
2023/03/04 03:34:52;;;;;;;36.88;16.35;;;;;;;0.59;83.50;99593.66;1727542;83;21101;-67
2023/03/04 03:37:21;;;;;;;36.90;15.70;;;;;;;0.59;83.50;99590.11;1722760;83;21022;-67
2023/03/04 03:39:49;;;;;;;40.95;16.00;;;;;;;0.61;83.65;99593.50;1727314;83;21341;-68
2023/03/04 03:42:18;;;;;;;45.35;17.17;;;;;;;0.63;83.69;99580.72;1722673;82;21054;-67
2023/03/04 03:44:49;;;;;;;37.98;15.80;;;;;;;0.66;83.72;99593.07;1727336;82;21478;-67
2023/03/04 03:47:17;;;;;;;36.65;16.27;;;;;;;0.67;83.70;99584.83;1722582;83;21031;-69
2023/03/04 03:49:46;;;;;;;36.98;16.80;;;;;;;0.69;83.69;99574.73;1727384;83;21066;-67
2023/03/04 03:52:16;;;;;;;40.05;16.20;;;;;;;0.69;83.66;99587.38;1722613;83;21086;-67
2023/03/04 03:54:45;;;;;;;39.18;15.98;;;;;;;0.69;83.68;99578.78;1727356;82;21074;-68
2023/03/04 03:57:14;;;;;;;33.28;14.85;;;;;;;0.72;83.77;99583.02;1722479;83;21034;-67
2023/03/04 03:59:43;;;;;;;42.38;16.30;;;;;;;0.72;83.68;99574.93;1727607;82;21074;-68
2023/03/04 04:02:14;;;;;;;39.60;16.35;;;;;;;0.69;83.67;99568.00;1722647;82;21062;-68
2023/03/04 04:04:44;;;;;;;39.05;15.78;;;;;;;0.70;83.72;99559.41;1727399;83;21149;-70
2023/03/04 04:07:14;;;;;;;34.75;14.60;;;;;;;0.70;83.70;99556.22;1722640;82;21018;-67
2023/03/04 04:09:45;;;;;;;37.60;16.07;;;;;;;0.71;83.76;99558.41;1727145;82;21453;-69
2023/03/04 04:12:15;;;;;;;34.43;14.53;;;;;;;0.72;83.75;99556.91;1722758;82;21007;-67
2023/03/04 04:14:46;;;;;;;43.02;16.62;;;;;;;0.73;83.68;99546.97;1727495;83;21034;-67
2023/03/04 04:17:14;;;;;;;38.63;16.62;;;;;;;0.73;83.71;99547.81;1722794;82;21081;-67
2023/03/04 04:19:43;;;;;;;36.75;15.28;;;;;;;0.74;83.65;99552.20;1727561;83;21073;-68
2023/03/04 04:22:17;;;;;;;37.95;15.80;;;;;;;0.75;83.61;99535.02;1722729;82;21486;-67
2023/03/04 04:24:47;;;;;;;36.08;15.40;;;;;;;0.79;83.65;99521.58;1727408;82;21034;-68
2023/03/04 04:27:18;;;;;;;37.15;15.28;;;;;;;0.83;83.53;99523.45;1722529;83;21030;-68
2023/03/04 04:29:46;;;;;;;37.67;16.02;;;;;;;0.86;83.39;99511.01;1727503;82;21305;-67
2023/03/04 04:32:16;;;;;;;39.48;15.75;;;;;;;0.86;83.33;99507.81;1722809;82;21054;-66
2023/03/04 04:34:45;;;;;;;39.23;15.32;;;;;;;0.87;83.25;99504.61;1727651;82;21061;-68
2023/03/04 04:37:15;;;;;;;36.05;15.05;;;;;;;0.89;83.25;99500.75;1722948;82;21063;-67
2023/03/04 04:39:43;;;;;;;36.03;15.23;;;;;;;0.90;83.10;99487.61;1727714;82;21054;-67
2023/03/04 04:42:13;;;;;;;36.88;15.35;;;;;;;0.91;83.10;99474.48;1722582;82;21030;-69
2023/03/04 04:44:45;;;;;;;37.15;15.65;;;;;;;0.93;83.11;99465.72;1727646;82;21105;-67
2023/03/04 04:47:14;;;;;;;37.13;16.02;;;;;;;0.97;83.06;99460.02;1722693;83;21034;-68
2023/03/04 04:49:43;;;;;;;38.73;15.63;;;;;;;0.99;82.96;99462.05;1727443;82;21056;-67
2023/03/04 04:52:12;;;;;;;33.78;14.50;;;;;;;0.99;82.86;99456.15;1722692;82;21073;-66
2023/03/04 04:54:41;;;;;;;37.05;14.78;;;;;;;1.04;82.86;99455.16;1727412;82;21038;-67
2023/03/04 04:57:10;;;;;;;36.03;15.30;;;;;;;1.06;82.71;99461.75;1722504;83;21042;-67
2023/03/04 04:59:39;;;;;;;31.48;15.60;;;;;;;1.07;82.59;99458.05;1727277;83;21630;-67
2023/03/04 05:02:10;;;;;;;37.42;15.08;;;;;;;1.08;82.50;99453.84;1722523;82;21023;-67
2023/03/04 05:04:40;;;;;;;37.50;15.08;;;;;;;1.09;82.39;99454.69;1727358;83;21457;-68
2023/03/04 05:07:09;;;;;;;33.88;14.23;;;;;;;1.12;82.28;99447.63;1722685;82;21038;-67
2023/03/04 05:09:38;;;;;;;37.53;15.98;;;;;;;1.13;82.05;99445.27;1727207;83;21528;-68
2023/03/04 05:12:07;;;;;;;31.42;14.53;;;;;;;1.14;81.89;99448.30;1722783;82;21062;-67
2023/03/04 05:14:36;;;;;;;34.03;14.45;;;;;;;1.15;81.75;99444.60;1727344;82;21062;-68
2023/03/04 05:17:06;;;;;;;34.70;14.33;;;;;;;1.16;81.65;99432.80;1722767;83;21063;-67
2023/03/04 05:19:35;;;;;;;32.33;13.90;;;;;;;1.18;81.47;99420.84;1727307;82;21038;-66
2023/03/04 05:22:05;;;;;;;34.00;14.80;;;;;;;1.18;81.14;99425.39;1722539;83;21482;-68
2023/03/04 05:24:34;;;;;;;35.28;14.87;;;;;;;1.18;80.92;99419.50;1727441;82;21066;-68
2023/03/04 05:27:03;;;;;;;33.92;14.10;;;;;;;1.18;80.68;99427.59;1722464;82;21089;-67
2023/03/04 05:29:32;;;;;;;31.73;14.40;;;;;;;1.19;80.71;99422.53;1727609;82;21046;-69
2023/03/04 05:32:01;;;;;;;32.30;14.20;;;;;;;1.21;80.48;99415.63;1722375;83;21043;-70
2023/03/04 05:34:31;;;;;;;31.42;13.20;;;;;;;1.22;80.43;99414.63;1727705;82;21034;-67
2023/03/04 05:37:00;;;;;;;30.88;13.40;;;;;;;1.26;80.34;99417.34;1722597;82;21031;-69
2023/03/04 05:39:29;;;;;;;32.35;13.05;;;;;;;1.28;79.89;99412.63;1727657;83;21030;-71
2023/03/04 05:42:00;;;;;;;30.80;13.28;;;;;;;1.29;79.88;99414.31;1722807;82;21038;-68
2023/03/04 05:44:30;;;;;;;31.40;13.28;;;;;;;1.34;79.76;99407.11;1727393;82;21066;-70
2023/03/04 05:46:58;;;;;;;30.40;12.33;;;;;;;1.35;79.48;99420.94;1722898;82;21034;-68
2023/03/04 05:49:27;;;;;;;32.60;13.65;;;;;;;1.36;79.28;99408.64;1727819;82;21013;-68
2023/03/04 05:51:56;;;;;;;32.17;13.15;;;;;;;1.38;79.16;99413.37;1722703;82;21028;-69
2023/03/04 05:54:25;;;;;;;30.48;13.75;;;;;;;1.41;78.88;99408.99;1727587;83;21028;-68
2023/03/04 05:56:54;;;;;;;30.68;12.55;;;;;;;1.42;78.75;99411.19;1722847;82;21043;-73
2023/03/04 05:59:23;;;;;;;30.95;12.78;;;;;;;1.44;78.54;99402.42;1727567;83;21054;-69
2023/03/04 06:01:53;;;;;;;32.88;13.83;;;;;;;1.46;78.27;99395.85;1722497;82;21051;-68
2023/03/04 06:04:23;;;;;;;31.30;12.40;;;;;;;1.50;78.15;99393.16;1727693;83;21045;-68
2023/03/04 06:06:53;;;;;;;28.12;11.97;;;;;;;1.54;78.01;99395.03;1722726;83;21504;-68
2023/03/04 06:09:24;;;;;;;32.15;12.93;;;;;;;1.57;77.86;99387.45;1727379;83;21581;-69
2023/03/04 06:11:54;;;;;;;28.77;12.33;;;;;;;1.62;77.63;99394.20;1722578;82;21082;-68
2023/03/04 06:14:26;;;;;;;33.00;13.53;;;;;;;1.63;77.45;99387.29;1727575;83;21474;-68
2023/03/04 06:16:56;;;;;;;34.67;13.13;;;;;;;1.66;77.10;99383.41;1722317;82;21011;-69
2023/03/04 06:19:26;;;;;;;27.60;12.98;;;;;;;1.64;76.90;99384.08;1727733;83;21457;-68
2023/03/04 06:21:55;;;;;;;30.12;12.95;;;;;;;1.65;76.69;99370.92;1722704;83;21109;-69
2023/03/04 06:24:23;;;;;;;31.77;13.05;;;;;;;1.65;76.64;99367.72;1727375;83;21124;-69
2023/03/04 06:26:53;;;;;;;31.30;12.88;;;;;;;1.67;76.59;99358.11;1722580;83;21246;-69
2023/03/04 06:29:23;;;;;;;31.02;12.70;;;;;;;1.71;76.50;99365.70;1727606;83;21505;-70
2023/03/04 06:31:51;;;;;;;30.20;12.45;;;;;;;1.73;76.08;99362.33;1713781;82;21070;-69
2023/03/04 06:34:21;;;;;;;32.28;13.05;;;;;;;1.73;75.77;99368.23;1700343;84;21006;-69
2023/03/04 06:36:50;;;;;;;30.23;12.80;;;;;;;1.75;75.90;99362.16;1700381;83;21034;-68
2023/03/04 06:39:19;;;;;;;37.03;13.48;;;;;;;1.82;75.80;99360.48;1700375;83;21070;-69
2023/03/04 06:41:48;;;;;;;31.90;12.93;;;;;;;1.87;75.64;99358.97;1700583;84;21057;-71
2023/03/04 06:44:17;;;;;;;31.37;13.38;;;;;;;1.91;75.37;99361.67;1700094;84;21007;-68
2023/03/04 06:46:46;;;;;;;36.95;13.65;;;;;;;1.93;75.01;99363.36;1700141;84;21442;-70
2023/03/04 06:49:15;;;;;;;32.40;13.38;;;;;;;1.92;74.98;99354.41;1700029;83;21042;-69
2023/03/04 06:51:45;;;;;;;36.55;13.95;;;;;;;1.93;74.78;99358.80;1700135;83;21078;-69
2023/03/04 06:54:15;;;;;;;32.65;13.83;;;;;;;1.94;74.74;99345.63;1700256;84;21451;-70
2023/03/04 06:56:44;;;;;;;38.17;14.43;;;;;;;1.99;74.73;99345.16;1700237;84;21054;-69
2023/03/04 06:59:13;;;;;;;36.00;14.53;;;;;;;2.04;74.67;99346.34;1700192;84;21067;-71
2023/03/04 07:01:41;;;;;;;45.52;14.53;;;;;;;2.08;74.50;99340.09;1700250;83;21030;-70
2023/03/04 07:04:12;;;;;;;38.70;14.95;;;;;;;2.12;74.49;99339.59;1700383;83;21264;-69
2023/03/04 07:06:41;;;;;;;35.52;14.65;;;;;;;2.19;74.55;99328.94;1699829;83;21062;-69
2023/03/04 07:09:10;;;;;;;40.28;14.10;;;;;;;2.22;74.48;99332.66;1699965;83;20991;-69
2023/03/04 07:11:40;;;;;;;35.50;14.47;;;;;;;2.27;74.45;99330.79;1700296;84;21078;-69
2023/03/04 07:14:09;;;;;;;37.50;15.48;;;;;;;2.34;74.46;99325.04;1700406;83;21027;-70
2023/03/04 07:16:38;;;;;;;37.00;15.72;;;;;;;2.39;74.21;99315.91;1700475;84;21038;-71
2023/03/04 07:19:08;;;;;;;36.33;14.83;;;;;;;2.40;74.21;99316.24;1700497;84;21026;-68
2023/03/04 07:21:39;;;;;;;38.45;14.73;;;;;;;2.42;74.14;99302.05;1700150;83;21007;-68
2023/03/04 07:24:09;;;;;;;37.28;15.58;;;;;;;2.45;74.09;99300.34;1700027;84;21037;-69
2023/03/04 07:26:38;;;;;;;34.75;15.65;;;;;;;2.47;73.92;99303.72;1699997;83;21026;-69
2023/03/04 07:29:06;;;;;;;33.45;14.60;;;;;;;2.50;74.08;99292.05;1700534;84;21450;-69
2023/03/04 07:31:35;;;;;;;39.35;16.32;;;;;;;2.55;74.02;99295.59;1700305;83;21027;-69
2023/03/04 07:34:07;;;;;;;41.92;16.60;;;;;;;2.62;73.95;99295.77;1700268;83;21089;-71
2023/03/04 07:36:36;;;;;;;40.00;15.53;;;;;;;2.65;73.83;99292.21;1700347;84;21058;-69
2023/03/04 07:39:07;;;;;;;43.38;16.62;;;;;;;2.68;73.72;99293.21;1700214;83;21055;-70
2023/03/04 07:41:37;;;;;;;39.03;15.78;;;;;;;2.73;73.54;99290.83;1699679;84;21046;-67
2023/03/04 07:44:06;;;;;;;41.73;16.42;;;;;;;2.77;73.37;99295.38;1700422;83;21031;-68
2023/03/04 07:46:37;;;;;;;36.45;15.83;;;;;;;2.79;73.19;99277.95;1700243;83;21435;-70
2023/03/04 07:49:05;;;;;;;45.38;17.77;;;;;;;2.81;72.93;99288.09;1686537;84;21044;-67
2023/03/04 07:51:34;;;;;;;39.70;15.78;;;;;;;2.83;72.90;99279.80;1700322;83;21082;-69
2023/03/04 07:54:03;;;;;;;42.15;16.70;;;;;;;2.84;72.79;99286.38;1700250;84;21443;-69
2023/03/04 07:56:33;;;;;;;37.48;16.20;;;;;;;2.88;72.63;99285.52;1700217;84;21493;-69
2023/03/04 07:59:03;;;;;;;45.73;18.42;;;;;;;2.91;72.33;99290.58;1700270;84;20990;-70
2023/03/04 08:01:36;;;;;;;45.38;17.77;;;;;;;2.92;72.03;99281.45;1700582;83;21082;-70
2023/03/04 08:04:06;;;;;;;40.40;16.77;;;;;;;2.94;71.84;99268.59;1700400;83;21093;-70
2023/03/04 08:06:36;;;;;;;42.55;17.00;;;;;;;2.98;71.76;99275.84;1700142;84;21089;-67
2023/03/04 08:09:07;;;;;;;43.65;18.73;;;;;;;3.02;71.32;99278.02;1655313;86;21054;-70
2023/03/04 08:11:38;;;;;;;41.55;16.57;;;;;;;3.05;70.77;99267.34;1617975;88;21147;-69
2023/03/04 08:14:08;;;;;;;42.15;16.93;;;;;;;3.06;70.16;99271.73;1644184;87;21487;-67
2023/03/04 08:16:37;;;;;;;46.90;17.60;;;;;;;3.11;69.76;99285.58;1655234;86;21050;-69
2023/03/04 08:19:06;;;;;;;38.75;16.23;;;;;;;3.16;69.41;99261.53;1655564;86;21187;-67
2023/03/04 08:21:35;;;;;;;40.38;16.80;;;;;;;3.25;69.08;99265.03;1655535;87;21090;-67
2023/03/04 08:24:07;;;;;;;43.05;17.27;;;;;;;3.32;68.65;99276.34;1655419;86;21585;-70
2023/03/04 08:26:42;;;;;;;42.27;16.05;;;;;;;3.38;67.89;99267.52;1665434;84;21050;-68
2023/03/04 08:29:15;;;;;;;40.20;16.02;;;;;;;3.43;67.24;99267.81;1700245;83;21030;-66
2023/03/04 08:31:45;;;;;;;39.45;16.67;;;;;;;3.44;67.26;99257.31;1701139;83;21537;-68
2023/03/04 08:34:16;;;;;;;39.85;16.87;;;;;;;3.53;67.30;99270.80;1727495;83;21084;-69
2023/03/04 08:36:46;;;;;;;39.18;16.42;;;;;;;3.54;66.60;99269.77;1722359;82;21560;-69
2023/03/04 08:39:17;;;;;;;39.18;16.52;;;;;;;3.53;65.93;99257.26;1727769;83;21459;-67
2023/03/04 08:41:46;;;;;;;35.17;14.75;;;;;;;3.48;65.87;99257.29;1722507;82;21030;-70
2023/03/04 08:44:15;;;;;;;51.25;17.73;;;;;;;3.41;65.64;99260.38;1727872;83;21034;-69
2023/03/04 08:46:44;;;;;;;37.58;16.12;;;;;;;3.34;66.00;99270.76;1722605;83;21477;-69
2023/03/04 08:49:14;;;;;;;48.10;17.62;;;;;;;3.26;65.96;99269.45;1727280;83;21062;-71
2023/03/04 08:51:44;;;;;;;37.85;15.18;;;;;;;3.22;66.17;99265.39;1709970;82;21086;-70
2023/03/04 08:54:13;;;;;;;46.42;17.67;;;;;;;3.17;66.11;99272.69;1739645;82;21078;-69
2023/03/04 08:56:43;;;;;;;39.50;16.25;;;;;;;3.14;66.25;99268.98;1706144;83;21623;-72
2023/03/04 08:59:12;;;;;;;42.03;17.17;;;;;;;3.13;66.29;99270.01;1722796;83;21042;-63
2023/03/04 09:01:42;;;;;;;39.65;15.53;;;;;;;3.15;66.22;99266.61;1729130;83;21051;-66
2023/03/04 09:04:12;;;;;;;42.05;16.12;;;;;;;3.19;66.67;99257.11;1733499;83;21031;-65
2023/03/04 09:06:40;;;;;;;37.95;15.10;;;;;;;3.22;66.34;99254.56;1731591;83;21147;-65
2023/03/04 09:09:09;;;;;;;40.63;16.20;;;;;;;3.22;66.04;99260.82;1734537;82;20998;-68
2023/03/04 09:11:40;;;;;;;36.35;14.70;;;;;;;3.24;66.00;99252.01;1667843;85;21070;-66
2023/03/04 09:14:09;;;;;;;35.43;13.98;;;;;;;3.30;68.19;99251.33;1667984;86;21037;-67
2023/03/04 09:16:39;;;;;;;36.75;14.15;;;;;;;3.57;71.03;99242.33;1667792;85;21077;-68
2023/03/04 09:19:07;;;;;;;30.37;14.60;;;;;;;3.86;68.63;99227.52;1667944;86;21069;-66
2023/03/04 09:21:38;;;;;;;36.70;15.98;;;;;;;4.14;68.92;99228.63;1584494;89;21097;-65
2023/03/04 09:24:07;;;;;;;39.75;16.55;;;;;;;4.37;66.09;99228.55;1605973;88;21133;-67
2023/03/04 09:26:36;;;;;;;37.03;15.40;;;;;;;4.29;64.18;99229.99;1583947;90;21109;-68
2023/03/04 09:29:06;;;;;;;40.52;16.73;;;;;;;4.14;63.44;99227.78;1631133;85;21070;-68
2023/03/04 09:31:36;;;;;;;39.45;16.23;;;;;;;3.99;63.44;99226.41;1688027;84;21570;-68
2023/03/04 09:34:07;;;;;;;37.90;16.70;;;;;;;3.91;63.63;99229.20;1687726;85;21616;-67
2023/03/04 09:36:36;;;;;;;51.95;16.57;;;;;;;3.85;63.50;99243.45;1688062;84;21069;-66
2023/03/04 09:39:06;;;;;;;44.48;15.58;;;;;;;3.80;63.62;99228.25;1649535;83;21035;-66
2023/03/04 09:41:44;;;;;;;38.42;15.65;;;;;;;3.79;63.75;99221.99;1715033;83;21609;-68
2023/03/04 09:44:36;;;;;;;35.03;14.87;;;;;;;3.83;63.90;99219.75;1715333;83;21015;-66
2023/03/04 09:47:09;;;;;;;37.35;15.28;;;;;;;3.84;64.04;99211.95;1715498;83;21035;-68
2023/03/04 09:49:44;;;;;;;36.25;16.07;;;;;;;3.88;63.63;99217.85;1715385;83;21059;-66
2023/03/04 09:52:31;;;;;;;36.93;15.23;;;;;;;3.87;63.18;99214.81;1692345;83;21089;-67
2023/03/04 09:55:14;;;;;;;34.50;12.05;;;;;;;3.83;62.90;99212.47;1715471;83;21023;-68
2023/03/04 09:57:48;;;;;;;36.38;14.33;;;;;;;3.83;62.05;99208.92;1730991;81;21502;-66
2023/03/04 10:00:27;;;;;;;39.17;14.93;;;;;;;3.82;62.17;99223.49;1761599;81;21027;-67
2023/03/04 10:03:13;;;;;;;36.45;13.68;;;;;;;3.83;60.81;99192.16;1755142;81;21018;-66
2023/03/04 10:06:05;;;;;;;33.80;12.98;;;;;;;3.78;60.17;99207.27;1754895;82;21129;-68
2023/03/04 10:08:58;;;;;;;32.20;14.15;;;;;;;3.79;61.10;99208.95;1755214;81;21065;-67
2023/03/04 10:11:50;;;;;;;34.85;13.60;;;;;;;3.81;59.46;99205.55;1755208;81;21070;-68
2023/03/04 10:14:31;;;;;;;39.92;13.22;;;;;;;3.77;59.35;99202.88;1755301;81;21050;-67
2023/03/04 10:17:04;;;;;;;29.98;13.72;;;;;;;3.72;59.48;99207.50;1755129;81;21482;-67
2023/03/04 10:19:49;;;;;;;31.48;13.75;;;;;;;3.70;59.89;99206.84;1734164;80;21053;-69
2023/03/04 10:22:36;;;;;;;33.60;12.85;;;;;;;3.66;59.73;99205.52;1736881;82;21005;-67
2023/03/04 10:25:21;;;;;;;31.17;12.82;;;;;;;3.60;59.48;99202.19;1736708;82;21025;-69
2023/03/04 10:27:57;;;;;;;30.55;13.48;;;;;;;3.56;59.71;99191.91;1736462;81;21073;-67
2023/03/04 10:30:55;;;;;;;33.30;14.05;;;;;;;3.52;59.99;99186.52;1736929;82;21440;-67
2023/03/04 10:33:37;;;;;;;28.25;13.05;;;;;;;3.52;60.04;99187.88;1736710;82;21103;-68
2023/03/04 10:36:32;;;;;;;36.93;14.68;;;;;;;3.53;60.20;99186.85;1736626;81;21048;-69
2023/03/04 10:39:10;;;;;;;34.50;14.43;;;;;;;3.52;60.25;99191.94;1736691;82;21070;-68
2023/03/04 10:41:45;;;;;;;31.68;13.22;;;;;;;3.53;60.09;99184.98;1736306;81;21448;-67
2023/03/04 10:44:16;;;;;;;32.67;13.35;;;;;;;3.49;59.65;99179.09;1736852;81;21538;-68
2023/03/04 10:46:47;;;;;;;29.40;12.82;;;;;;;3.43;59.90;99187.11;1707895;83;21044;-66
2023/03/04 10:49:18;;;;;;;30.85;13.60;;;;;;;3.39;60.15;99174.44;1734228;83;21527;-67
2023/03/04 10:51:56;;;;;;;33.55;13.05;;;;;;;3.33;60.28;99164.34;1734353;83;21469;-67
2023/03/04 10:54:41;;;;;;;29.40;13.58;;;;;;;3.27;60.47;99174.55;1734238;82;21025;-67
2023/03/04 10:57:16;;;;;;;31.80;13.40;;;;;;;3.23;60.76;99169.13;1734285;83;21064;-67
2023/03/04 10:59:59;;;;;;;27.67;12.58;;;;;;;3.19;61.01;99171.87;1734303;82;21028;-69
2023/03/04 11:02:33;;;;;;;30.32;12.43;;;;;;;3.16;61.26;99153.28;1734494;82;21469;-67
2023/03/04 11:05:21;;;;;;;36.53;12.23;;;;;;;3.17;61.99;99148.20;1734423;82;21053;-67
2023/03/04 11:07:52;;;;;;;24.80;11.88;;;;;;;3.18;61.73;99133.14;1734402;83;20997;-66
2023/03/04 11:10:37;;;;;;;27.48;11.50;;;;;;;3.23;61.71;99126.33;1734173;82;20989;-66
2023/03/04 11:13:23;;;;;;;23.27;11.20;;;;;;;3.31;60.97;99139.83;1734608;82;21398;-65
2023/03/04 11:15:56;;;;;;;28.70;11.20;;;;;;;3.38;62.34;99125.38;1734171;82;21076;-75
2023/03/04 11:18:47;;;;;;;22.05;9.75;;;;;;;3.52;63.22;99124.24;1734768;83;21034;-74
2023/03/04 11:21:24;;;;;;;40.67;11.20;;;;;;;3.86;68.65;99129.14;1743186;82;21485;-73
2023/03/04 11:24:03;;;;;;;33.42;11.85;;;;;;;4.52;65.87;99125.48;1752213;82;21094;-77
2023/03/04 11:26:42;;;;;;;31.12;11.65;;;;;;;4.85;63.99;99134.03;1739369;82;21065;-74
2023/03/04 11:29:21;;;;;;;26.95;11.85;;;;;;;4.98;60.62;99129.26;1751057;81;21011;-74
2023/03/04 11:32:10;;;;;;;120.20;17.10;;;;;;;5.03;59.06;99118.66;1745273;82;21053;-72
2023/03/04 11:35:17;;;;;;;31.52;12.07;;;;;;;5.04;58.65;99127.13;1725278;82;21057;-68
2023/03/04 11:38:11;;;;;;;24.00;10.60;;;;;;;4.93;56.18;99119.50;1691351;83;21097;-72
2023/03/04 11:40:50;;;;;;;30.27;11.12;;;;;;;4.56;56.59;99116.48;1723724;83;21014;-68
2023/03/04 11:43:28;;;;;;;39.73;12.15;;;;;;;4.38;56.93;99129.05;1723958;83;21462;-68
2023/03/04 11:46:31;;;;;;;32.03;11.78;;;;;;;4.21;57.39;99109.45;1724098;83;21415;-68